Energy Zeus — WDD3941 — position and weather

sailwx.info

Track history (hours):
 
Tides and Currents Weather Stations Pressure Air Temp Water Temp Dewpoint Dewpoint Depression Visibility Wind Speed Wind Dir Waves Ship Positions

Energy Zeus

Owner: Seabulk Towing Services, Inc., Fort Lauderdale, FL. More information available from US FCC via Universal Licensing System and Coast Guard Vessel Documentation Center.

Last reported at 2017-Nov-24 11:29 UTC. Time now 2017-Nov-24 11:44 UTC.
Position N 30°12' W 093°18'.

Length 30 m; draft 4 m.

Type: Tug. MMSI: 367138360.

Date/timePositionNaut miles runAvg speedWind from/ knotsBaromVisibWave heightAir tempDewpointWater temp
2017-Nov-24 11:29N 30°12' W 093°18'0 0.0
2017-Nov-24 10:59N 30°12' W 093°18'0 0.0
2017-Nov-24 10:29N 30°12' W 093°18'0 0.0
2017-Nov-24 09:59N 30°12' W 093°18'0 0.0
2017-Nov-24 09:29N 30°12' W 093°18'0 0.0
2017-Nov-24 08:59N 30°12' W 093°18'0 0.0
2017-Nov-24 08:29N 30°12' W 093°18'0 0.0
2017-Nov-24 07:59N 30°12' W 093°18'0 0.0
2017-Nov-24 07:29N 30°12' W 093°18'0 0.0
2017-Nov-24 06:59N 30°12' W 093°18'0 0.0
2017-Nov-24 06:29N 30°12' W 093°18'0 0.0
2017-Nov-24 05:59N 30°12' W 093°18'0 0.0
2017-Nov-24 05:29N 30°12' W 093°18'1 1.9
2017-Nov-24 05:00N 30°11' W 093°18'1 3.0
2017-Nov-24 04:30N 30°10' W 093°19'0 0.8
2017-Nov-24 04:00N 30°09' W 093°20'0 0.0
2017-Nov-24 03:30N 30°09' W 093°20'4 7.6
2017-Nov-24 03:00N 30°06' W 093°19'2 3.6
2017-Nov-24 02:29N 30°06' W 093°17'0 0.0
2017-Nov-24 01:59N 30°06' W 093°17'0 0.0
2017-Nov-24 01:29N 30°06' W 093°17'0 0.0
2017-Nov-24 00:56N 30°06' W 093°17'0 0.0
2017-Nov-24 00:29N 30°06' W 093°17'0 0.0
2017-Nov-23 23:56N 30°06' W 093°17'0 0.0
2017-Nov-23 23:29N 30°06' W 093°17'0 0.0
2017-Nov-23 22:59N 30°06' W 093°17'0 0.0
2017-Nov-23 22:29N 30°06' W 093°17'0 0.0
2017-Nov-23 21:59N 30°06' W 093°17'0 0.0
2017-Nov-23 21:26N 30°06' W 093°17'0 0.0
2017-Nov-23 20:59N 30°06' W 093°17'0 0.0
2017-Nov-23 20:29N 30°06' W 093°17'0 0.0
2017-Nov-23 19:59N 30°06' W 093°17'0 0.0
2017-Nov-23 19:29N 30°06' W 093°17'0 0.0
2017-Nov-23 18:59N 30°06' W 093°17'0 0.0
2017-Nov-23 18:29N 30°06' W 093°17'0 0.0
2017-Nov-23 17:59N 30°06' W 093°17'0 0.0
2017-Nov-23 17:29N 30°06' W 093°17'0 0.0
2017-Nov-23 16:59N 30°06' W 093°17'0 0.0
2017-Nov-23 16:29N 30°06' W 093°17'0 0.0
2017-Nov-23 15:59N 30°06' W 093°17'0 0.0
2017-Nov-23 15:29N 30°06' W 093°17'0 0.0
2017-Nov-23 14:59N 30°06' W 093°17'0 0.0
2017-Nov-23 14:23N 30°06' W 093°17'0 0.0
2017-Nov-23 13:59N 30°06' W 093°17'0 0.0
2017-Nov-23 13:26N 30°06' W 093°17'0 0.0
2017-Nov-23 12:59N 30°06' W 093°17'0 0.0
2017-Nov-23 12:29N 30°06' W 093°17'0 0.0
2017-Nov-23 11:59N 30°06' W 093°17'0 0.0
2017-Nov-23 11:29N 30°06' W 093°17'0 0.0
2017-Nov-23 10:59N 30°06' W 093°17'0 0.0
2017-Nov-23 10:29N 30°06' W 093°17'0 0.0
2017-Nov-23 09:59N 30°06' W 093°17'0 0.0
2017-Nov-23 09:29N 30°06' W 093°17'0 0.0
2017-Nov-23 08:59N 30°06' W 093°17'0 0.0
2017-Nov-23 08:26N 30°06' W 093°17'0 0.0
2017-Nov-23 07:59N 30°06' W 093°17'0 0.0
2017-Nov-23 07:29N 30°06' W 093°17'0 0.0
2017-Nov-23 06:59N 30°06' W 093°17'0 0.0
2017-Nov-23 06:29N 30°06' W 093°17'0 0.0
2017-Nov-23 05:56N 30°06' W 093°17'0 0.0
2017-Nov-23 05:29N 30°06' W 093°17'0 0.2
2017-Nov-23 05:00N 30°07' W 093°18'2 4.8
2017-Nov-23 04:30N 30°08' W 093°20'1 2.9
2017-Nov-23 04:00N 30°09' W 093°20'0 0.0
2017-Nov-23 03:30N 30°09' W 093°20'1 2.1
2017-Nov-23 03:00N 30°08' W 093°20'3 5.4
2017-Nov-23 02:30N 30°06' W 093°20'2 4.1
2017-Nov-23 02:00N 30°04' W 093°20'2 4.5
2017-Nov-23 01:30N 30°06' W 093°20'4 8.3
2017-Nov-23 01:00N 30°10' W 093°19'4 8.2
2017-Nov-23 00:30N 30°13' W 093°16'0 0.8
2017-Nov-22 23:59N 30°13' W 093°15'0 0.0
2017-Nov-22 23:29N 30°13' W 093°15'0 0.0
2017-Nov-22 22:59N 30°13' W 093°15'0 0.0
2017-Nov-22 22:29N 30°13' W 093°15'0 0.0
2017-Nov-22 21:59N 30°13' W 093°15'0 0.0
2017-Nov-22 21:29N 30°13' W 093°15'0 0.0
2017-Nov-22 20:59N 30°13' W 093°15'0 0.0
2017-Nov-22 20:29N 30°13' W 093°15'0 0.0
2017-Nov-22 19:59N 30°13' W 093°15'0 0.0
2017-Nov-22 19:29N 30°13' W 093°15'  
2017-Nov-20 00:30N 30°06' W 093°17'0 0.0
2017-Nov-20 00:00N 30°06' W 093°17'0 0.0
2017-Nov-19 23:30N 30°06' W 093°17'0 0.0
2017-Nov-19 23:00N 30°06' W 093°17'0 0.0
2017-Nov-19 22:30N 30°06' W 093°17'0 0.0
2017-Nov-19 22:00N 30°06' W 093°17'0 0.0
2017-Nov-19 21:30N 30°06' W 093°17'0 0.0
2017-Nov-19 21:00N 30°06' W 093°17'0 0.0
2017-Nov-19 20:30N 30°06' W 093°17'0 0.0
2017-Nov-19 19:57N 30°06' W 093°17'0 0.0
2017-Nov-19 19:30N 30°06' W 093°17'0 0.0
2017-Nov-19 19:00N 30°06' W 093°17'0 0.0
2017-Nov-19 18:30N 30°06' W 093°17'0 0.0
2017-Nov-19 18:00N 30°06' W 093°17'0 0.0
2017-Nov-19 17:30N 30°06' W 093°17'1 1.5
2017-Nov-19 17:00N 30°06' W 093°18'0 0.0
2017-Nov-19 16:30N 30°06' W 093°18'0 0.0
2017-Nov-19 16:00N 30°06' W 093°18'2 3.8
2017-Nov-19 15:30N 30°08' W 093°20'3 5.3
2017-Nov-19 15:00N 30°10' W 093°19'0 0.6
2017-Nov-19 14:30N 30°11' W 093°19'0 0.0
2017-Nov-19 14:00N 30°11' W 093°19'1 2.8
2017-Nov-19 13:30N 30°11' W 093°18'2 0.4
2017-Nov-19 07:26N 30°13' W 093°15'0 0.0
2017-Nov-19 06:08N 30°13' W 093°15'0 0.0
2017-Nov-19 05:56N 30°13' W 093°15'0 0.0
2017-Nov-19 05:26N 30°13' W 093°15'3 6.5
2017-Nov-19 05:01N 30°11' W 093°18'1 1.9
2017-Nov-19 04:31N 30°11' W 093°19'0 0.2
2017-Nov-19 04:01N 30°11' W 093°19'0 0.5
2017-Nov-19 03:31N 30°11' W 093°19'2 4.6
2017-Nov-19 03:01N 30°08' W 093°20'0 0.5
2017-Nov-19 02:31N 30°08' W 093°20'1 2.3
2017-Nov-19 02:01N 30°09' W 093°20'3 6.9
2017-Nov-19 01:31N 30°12' W 093°17'2 3.0
2017-Nov-19 00:51N 30°13' W 093°15'0 0.0
2017-Nov-19 00:27N 30°13' W 093°15'0 0.0
2017-Nov-18 23:54N 30°13' W 093°15'0 0.0
2017-Nov-18 23:30N 30°13' W 093°15'0 0.0
2017-Nov-18 22:51N 30°13' W 093°15'0 0.0
2017-Nov-18 22:27N 30°13' W 093°15'0 0.0
2017-Nov-18 22:00N 30°13' W 093°15'0 0.0
2017-Nov-18 21:30N 30°13' W 093°15'0 0.0
2017-Nov-18 20:57N 30°13' W 093°15'0 0.0
2017-Nov-18 20:30N 30°13' W 093°15'0 0.0
2017-Nov-18 19:54N 30°13' W 093°15'0 0.0
2017-Nov-18 19:21N 30°13' W 093°15'0 0.0
2017-Nov-18 19:00N 30°13' W 093°15'4 7.8
2017-Nov-18 18:30N 30°11' W 093°19'0 0.2
2017-Nov-18 18:00N 30°11' W 093°19'1 2.9
2017-Nov-18 17:31N 30°12' W 093°18'2 3.9
2017-Nov-18 16:59N 30°13' W 093°16'1 2.3
2017-Nov-18 16:30N 30°14' W 093°16'0 0.8
2017-Nov-18 16:01N 30°14' W 093°15'1 1.0
2017-Nov-18 15:25N 30°13' W 093°15'0 0.0
2017-Nov-18 14:55N 30°13' W 093°15'3 7.1
2017-Nov-18 14:31N 30°11' W 093°18'1 1.8
2017-Nov-18 14:00N 30°11' W 093°19'1 2.7
2017-Nov-18 13:30N 30°10' W 093°20'0 0.0
2017-Nov-18 13:01N 30°10' W 093°20'1 2.6
2017-Nov-18 12:31N 30°11' W 093°19'0 0.3
2017-Nov-18 12:01N 30°11' W 093°19'1 1.9
2017-Nov-18 11:31N 30°11' W 093°18'0 0.0
2017-Nov-18 11:01N 30°11' W 093°18'0 0.0
2017-Nov-18 10:31N 30°11' W 093°18'0 0.0
2017-Nov-18 10:01N 30°11' W 093°18'0 0.0
2017-Nov-18 09:31N 30°11' W 093°18'0 0.0
2017-Nov-18 09:01N 30°11' W 093°18'0 0.0
2017-Nov-18 08:30N 30°11' W 093°18'0 0.0
2017-Nov-18 08:01N 30°11' W 093°18'0 0.0
2017-Nov-18 07:30N 30°11' W 093°18'0 0.0
2017-Nov-18 07:01N 30°11' W 093°18'0 0.0
2017-Nov-18 06:31N 30°11' W 093°18'0 0.0
2017-Nov-18 06:01N 30°11' W 093°18'0 0.0
2017-Nov-18 05:30N 30°11' W 093°18'0 0.0
2017-Nov-18 05:01N 30°11' W 093°18'0 0.6
2017-Nov-18 04:29N 30°12' W 093°18'1 1.4
2017-Nov-18 03:59N 30°11' W 093°18'1 1.9
2017-Nov-18 03:29N 30°10' W 093°19'1 2.8
2017-Nov-18 03:00N 30°09' W 093°20'3 5.4
2017-Nov-18 02:30N 30°07' W 093°20'1 2.1
2017-Nov-18 02:00N 30°06' W 093°20'0 0.0
2017-Nov-18 01:30N 30°06' W 093°20'2 4.8
2017-Nov-18 01:00N 30°08' W 093°20'4 7.6
2017-Nov-18 00:30N 30°11' W 093°18'0 0.0
2017-Nov-18 00:00N 30°11' W 093°18'0 0.0
2017-Nov-17 23:30N 30°11' W 093°18'0 0.0
2017-Nov-17 23:00N 30°11' W 093°18'0 0.0
2017-Nov-17 22:30N 30°11' W 093°18'0 0.0
2017-Nov-17 22:00N 30°11' W 093°18'0 0.0
2017-Nov-17 21:30N 30°11' W 093°18'0 0.0
2017-Nov-17 21:00N 30°11' W 093°18'0 0.0
2017-Nov-17 20:27N 30°11' W 093°18'0 0.0
2017-Nov-17 20:00N 30°11' W 093°18'1 2.5
2017-Nov-17 19:30N 30°11' W 093°19'0 0.0
2017-Nov-17 19:01N 30°11' W 093°19'0 0.1
2017-Nov-17 18:31N 30°11' W 093°19'2 4.1
2017-Nov-17 18:01N 30°09' W 093°20'1 2.4
2017-Nov-17 17:31N 30°10' W 093°19'0 0.1
2017-Nov-17 17:01N 30°10' W 093°19'0 0.5
2017-Nov-17 16:30N 30°10' W 093°19'1 2.2
2017-Nov-17 16:00N 30°11' W 093°18'1 1.0
2017-Nov-17 15:31N 30°11' W 093°19'0 0.9
2017-Nov-17 15:01N 30°11' W 093°19'1 1.2
2017-Nov-17 14:29N 30°11' W 093°18'0 0.0
2017-Nov-17 13:59N 30°11' W 093°18'0 0.0
2017-Nov-17 13:29N 30°11' W 093°18'0 0.0
2017-Nov-17 12:59N 30°11' W 093°18'0 0.0
2017-Nov-17 12:23N 30°11' W 093°18'0 0.0
2017-Nov-17 11:59N 30°11' W 093°18'0 0.0
2017-Nov-17 11:29N 30°11' W 093°18'0 0.0
2017-Nov-17 10:59N 30°11' W 093°18'0 0.0
2017-Nov-17 10:29N 30°11' W 093°18'0 0.0
2017-Nov-17 09:59N 30°11' W 093°18'0 0.0
2017-Nov-17 09:29N 30°11' W 093°18'0 0.0
2017-Nov-17 08:59N 30°11' W 093°18'0 0.0
2017-Nov-17 08:29N 30°11' W 093°18'0 0.0
2017-Nov-17 07:59N 30°11' W 093°18'0 0.0
2017-Nov-17 07:29N 30°11' W 093°18'0 0.0
2017-Nov-17 06:59N 30°11' W 093°18'0 0.0
2017-Nov-17 06:29N 30°11' W 093°18'0 0.0
2017-Nov-17 05:59N 30°11' W 093°18'0 0.0
2017-Nov-17 05:29N 30°11' W 093°18'0 0.0
2017-Nov-17 04:59N 30°11' W 093°18'0 0.0
2017-Nov-17 04:29N 30°11' W 093°18'1 1.1
2017-Nov-17 04:00N 30°11' W 093°18'2 3.6
2017-Nov-17 03:31N 30°10' W 093°20'0 0.0
2017-Nov-17 03:01N 30°10' W 093°20'0 0.8
2017-Nov-17 02:31N 30°09' W 093°20'2 4.4
2017-Nov-17 02:01N 30°07' W 093°20'3 5.5
2017-Nov-17 01:30N 30°04' W 093°20'0 0.4
2017-Nov-17 01:01N 30°04' W 093°20'3 6.0
2017-Nov-17 00:31N 30°07' W 093°18'0 0.3
2017-Nov-17 00:00N 30°06' W 093°17'0 0.0
2017-Nov-16 23:31N 30°06' W 093°17'0 0.0
2017-Nov-16 22:58N 30°06' W 093°17'0 0.0
2017-Nov-16 22:28N 30°06' W 093°17'0 0.0
2017-Nov-16 21:58N 30°06' W 093°17'0 0.0
2017-Nov-16 21:28N 30°06' W 093°17'2 4.4
2017-Nov-16 21:00N 30°06' W 093°20'4 7.8
2017-Nov-16 20:30N 30°10' W 093°19'1 1.7
2017-Nov-16 20:00N 30°11' W 093°19'0 0.9
2017-Nov-16 19:30N 30°11' W 093°19'0 0.5
2017-Nov-16 19:00N 30°11' W 093°19'0 0.0
2017-Nov-16 18:30N 30°11' W 093°19'0 0.0
2017-Nov-16 18:00N 30°11' W 093°19'1 2.1
2017-Nov-16 17:30N 30°10' W 093°19'2 3.7
2017-Nov-16 17:00N 30°11' W 093°18'3 5.3
2017-Nov-16 16:30N 30°13' W 093°16'1 1.8
2017-Nov-16 16:00N 30°14' W 093°16'1 1.1
2017-Nov-16 15:30N 30°14' W 093°15'1 3.0
2017-Nov-16 15:00N 30°12' W 093°16'4 8.6
2017-Nov-16 14:30N 30°09' W 093°20'4 7.1
2017-Nov-16 14:00N 30°06' W 093°19'1 2.5
2017-Nov-16 13:25N 30°06' W 093°17'0 0.0
2017-Nov-16 12:58N 30°06' W 093°17'0 0.0
2017-Nov-16 12:28N 30°06' W 093°17'0 0.0
2017-Nov-16 11:58N 30°06' W 093°17'0 0.0
2017-Nov-16 11:28N 30°06' W 093°17'0 0.0
2017-Nov-16 10:58N 30°06' W 093°17'0 0.0
2017-Nov-16 10:28N 30°06' W 093°17'0 0.0
2017-Nov-16 09:58N 30°06' W 093°17'0 0.0
2017-Nov-16 09:28N 30°06' W 093°17'0 0.0
2017-Nov-16 08:58N 30°06' W 093°17'0 0.0
2017-Nov-16 08:28N 30°06' W 093°17'0 0.0
2017-Nov-16 07:58N 30°06' W 093°17'0 0.0
2017-Nov-16 07:28N 30°06' W 093°17'0 0.0
2017-Nov-16 06:58N 30°06' W 093°17'0 0.0
2017-Nov-16 06:28N 30°06' W 093°17'0 0.0
2017-Nov-16 05:58N 30°06' W 093°17'0 0.0
2017-Nov-16 05:28N 30°06' W 093°17'0 0.0
2017-Nov-16 04:58N 30°06' W 093°17'0 0.0
2017-Nov-16 04:28N 30°06' W 093°17'0 0.0
2017-Nov-16 03:58N 30°06' W 093°17'0 0.0
2017-Nov-16 03:28N 30°06' W 093°17'0 0.0
2017-Nov-16 02:58N 30°06' W 093°17'0 0.0
2017-Nov-16 02:28N 30°06' W 093°17'0 0.0
2017-Nov-16 01:58N 30°06' W 093°17'0 0.0
2017-Nov-16 01:28N 30°06' W 093°17'2 3.7
2017-Nov-16 01:00N 30°06' W 093°19'4 7.5
2017-Nov-16 00:30N 30°10' W 093°19'4 8.2
2017-Nov-16 00:00N 30°12' W 093°16'8 2.2
2017-Nov-15 20:26N 30°05' W 093°20'0 0.6
2017-Nov-15 20:01N 30°05' W 093°20'0 0.6
2017-Nov-15 19:31N 30°06' W 093°19'2 3.6
2017-Nov-15 18:58N 30°06' W 093°17'0 0.0
2017-Nov-15 18:28N 30°06' W 093°17'0 0.0
2017-Nov-15 17:58N 30°06' W 093°17'0 0.0
2017-Nov-15 17:28N 30°06' W 093°17'0 0.0
2017-Nov-15 16:58N 30°06' W 093°17'0 0.0
2017-Nov-15 16:28N 30°06' W 093°17'0 0.0
2017-Nov-15 15:58N 30°06' W 093°17'0 0.0
2017-Nov-15 15:28N 30°06' W 093°17'0 0.0
2017-Nov-15 14:58N 30°06' W 093°17'0 0.0
2017-Nov-15 14:28N 30°06' W 093°17'0 0.0
2017-Nov-15 13:58N 30°06' W 093°17'0 0.0
2017-Nov-15 13:28N 30°06' W 093°17'0 0.0
2017-Nov-15 12:58N 30°06' W 093°17'0 0.0
2017-Nov-15 12:28N 30°06' W 093°17'0 0.0
2017-Nov-15 11:58N 30°06' W 093°17'0 0.0
2017-Nov-15 11:28N 30°06' W 093°17'0 0.0
2017-Nov-15 10:58N 30°06' W 093°17'0 0.0
2017-Nov-15 10:28N 30°06' W 093°17'0 0.0
2017-Nov-15 09:58N 30°06' W 093°17'0 0.0
2017-Nov-15 09:25N 30°06' W 093°17'2 5.1
2017-Nov-15 09:01N 30°06' W 093°20'4 8.1
2017-Nov-15 08:30N 30°10' W 093°19'2 4.9
2017-Nov-15 08:01N 30°12' W 093°17'2 4.8
2017-Nov-15 07:31N 30°13' W 093°15'1 1.1
2017-Nov-15 06:58N 30°14' W 093°15'1 1.3
2017-Nov-15 06:28N 30°13' W 093°15'1 1.1
2017-Nov-15 06:00N 30°13' W 093°15'0 0.0
2017-Nov-15 05:15N 30°13' W 093°15'0 0.0
2017-Nov-15 03:27N 30°13' W 093°15'0 0.0
2017-Nov-15 02:57N 30°13' W 093°15'0 0.0
2017-Nov-15 02:27N 30°13' W 093°15'0 0.0
2017-Nov-15 01:57N 30°13' W 093°15'0 0.0
2017-Nov-15 01:27N 30°13' W 093°15'0 0.0
2017-Nov-15 00:57N 30°13' W 093°15'0 0.0
2017-Nov-15 00:15N 30°13' W 093°15'0 0.0
2017-Nov-14 23:39N 30°13' W 093°15'0 0.0
2017-Nov-14 23:30N 30°13' W 093°15'0 0.0
2017-Nov-14 23:00N 30°13' W 093°15'0 0.0
2017-Nov-14 22:30N 30°13' W 093°15'0 0.0
2017-Nov-14 22:00N 30°13' W 093°15'0 0.0
2017-Nov-14 21:30N 30°13' W 093°15'0 0.0
2017-Nov-14 21:00N 30°13' W 093°15'0 0.0
2017-Nov-14 20:24N 30°13' W 093°15'0 0.0
2017-Nov-14 19:57N 30°13' W 093°15'0 0.0
2017-Nov-14 19:21N 30°13' W 093°15'0 0.0
2017-Nov-14 19:00N 30°13' W 093°15'0 0.0
2017-Nov-14 18:21N 30°13' W 093°15'0 0.0
2017-Nov-14 17:57N 30°13' W 093°15'0 0.0
2017-Nov-14 17:30N 30°13' W 093°15'0 0.0
2017-Nov-14 17:00N 30°13' W 093°15'0 0.0
2017-Nov-14 16:15N 30°13' W 093°15'0 0.0
2017-Nov-14 15:57N 30°13' W 093°15'3 7.0
2017-Nov-14 15:30N 30°11' W 093°18'0 0.4
2017-Nov-14 15:00N 30°11' W 093°18'0 0.5
2017-Nov-14 14:30N 30°11' W 093°19'3 5.8
2017-Nov-14 13:55N 30°13' W 093°15'0 0.0
2017-Nov-14 13:28N 30°13' W 093°15'0 0.0
2017-Nov-14 12:58N 30°13' W 093°15'1 2.3
2017-Nov-14 12:31N 30°13' W 093°14'  
Track history (hours):
 
Tides and Currents Weather Stations Pressure Air Temp Water Temp Dewpoint Dewpoint Depression Visibility Wind Speed Wind Dir Waves Ship Positions

Energy Zeus

Owner: Seabulk Towing Services, Inc., Fort Lauderdale, FL. More information available from US FCC via Universal Licensing System and Coast Guard Vessel Documentation Center.

Last reported at 2017-Nov-24 11:29 UTC. Time now 2017-Nov-24 11:44 UTC.
Position N 30°12' W 093°18'.

Length 30 m; draft 4 m.

Type: Tug. MMSI: 367138360.

Date/timePositionNaut miles runAvg speedWind from/ knotsBaromVisibWave heightAir tempDewpointWater temp
2017-Nov-24 11:29N 30°12' W 093°18'0 0.0
2017-Nov-24 10:59N 30°12' W 093°18'0 0.0
2017-Nov-24 10:29N 30°12' W 093°18'0 0.0
2017-Nov-24 09:59N 30°12' W 093°18'0 0.0
2017-Nov-24 09:29N 30°12' W 093°18'0 0.0
2017-Nov-24 08:59N 30°12' W 093°18'0 0.0
2017-Nov-24 08:29N 30°12' W 093°18'0 0.0
2017-Nov-24 07:59N 30°12' W 093°18'0 0.0
2017-Nov-24 07:29N 30°12' W 093°18'0 0.0
2017-Nov-24 06:59N 30°12' W 093°18'0 0.0
2017-Nov-24 06:29N 30°12' W 093°18'0 0.0
2017-Nov-24 05:59N 30°12' W 093°18'0 0.0
2017-Nov-24 05:29N 30°12' W 093°18'1 1.9
2017-Nov-24 05:00N 30°11' W 093°18'1 3.0
2017-Nov-24 04:30N 30°10' W 093°19'0 0.8
2017-Nov-24 04:00N 30°09' W 093°20'0 0.0
2017-Nov-24 03:30N 30°09' W 093°20'4 7.6
2017-Nov-24 03:00N 30°06' W 093°19'2 3.6
2017-Nov-24 02:29N 30°06' W 093°17'0 0.0
2017-Nov-24 01:59N 30°06' W 093°17'0 0.0
2017-Nov-24 01:29N 30°06' W 093°17'0 0.0
2017-Nov-24 00:56N 30°06' W 093°17'0 0.0
2017-Nov-24 00:29N 30°06' W 093°17'0 0.0
2017-Nov-23 23:56N 30°06' W 093°17'0 0.0
2017-Nov-23 23:29N 30°06' W 093°17'0 0.0
2017-Nov-23 22:59N 30°06' W 093°17'0 0.0
2017-Nov-23 22:29N 30°06' W 093°17'0 0.0
2017-Nov-23 21:59N 30°06' W 093°17'0 0.0
2017-Nov-23 21:26N 30°06' W 093°17'0 0.0
2017-Nov-23 20:59N 30°06' W 093°17'0 0.0
2017-Nov-23 20:29N 30°06' W 093°17'0 0.0
2017-Nov-23 19:59N 30°06' W 093°17'0 0.0
2017-Nov-23 19:29N 30°06' W 093°17'0 0.0
2017-Nov-23 18:59N 30°06' W 093°17'0 0.0
2017-Nov-23 18:29N 30°06' W 093°17'0 0.0
2017-Nov-23 17:59N 30°06' W 093°17'0 0.0
2017-Nov-23 17:29N 30°06' W 093°17'0 0.0
2017-Nov-23 16:59N 30°06' W 093°17'0 0.0
2017-Nov-23 16:29N 30°06' W 093°17'0 0.0
2017-Nov-23 15:59N 30°06' W 093°17'0 0.0
2017-Nov-23 15:29N 30°06' W 093°17'0 0.0
2017-Nov-23 14:59N 30°06' W 093°17'0 0.0
2017-Nov-23 14:23N 30°06' W 093°17'0 0.0
2017-Nov-23 13:59N 30°06' W 093°17'0 0.0
2017-Nov-23 13:26N 30°06' W 093°17'0 0.0
2017-Nov-23 12:59N 30°06' W 093°17'0 0.0
2017-Nov-23 12:29N 30°06' W 093°17'0 0.0
2017-Nov-23 11:59N 30°06' W 093°17'0 0.0
2017-Nov-23 11:29N 30°06' W 093°17'0 0.0
2017-Nov-23 10:59N 30°06' W 093°17'0 0.0
2017-Nov-23 10:29N 30°06' W 093°17'0 0.0
2017-Nov-23 09:59N 30°06' W 093°17'0 0.0
2017-Nov-23 09:29N 30°06' W 093°17'0 0.0
2017-Nov-23 08:59N 30°06' W 093°17'0 0.0
2017-Nov-23 08:26N 30°06' W 093°17'0 0.0
2017-Nov-23 07:59N 30°06' W 093°17'0 0.0
2017-Nov-23 07:29N 30°06' W 093°17'0 0.0
2017-Nov-23 06:59N 30°06' W 093°17'0 0.0
2017-Nov-23 06:29N 30°06' W 093°17'0 0.0
2017-Nov-23 05:56N 30°06' W 093°17'0 0.0
2017-Nov-23 05:29N 30°06' W 093°17'0 0.2
2017-Nov-23 05:00N 30°07' W 093°18'2 4.8
2017-Nov-23 04:30N 30°08' W 093°20'1 2.9
2017-Nov-23 04:00N 30°09' W 093°20'0 0.0
2017-Nov-23 03:30N 30°09' W 093°20'1 2.1
2017-Nov-23 03:00N 30°08' W 093°20'3 5.4
2017-Nov-23 02:30N 30°06' W 093°20'2 4.1
2017-Nov-23 02:00N 30°04' W 093°20'2 4.5
2017-Nov-23 01:30N 30°06' W 093°20'4 8.3
2017-Nov-23 01:00N 30°10' W 093°19'4 8.2
2017-Nov-23 00:30N 30°13' W 093°16'0 0.8
2017-Nov-22 23:59N 30°13' W 093°15'0 0.0
2017-Nov-22 23:29N 30°13' W 093°15'0 0.0
2017-Nov-22 22:59N 30°13' W 093°15'0 0.0
2017-Nov-22 22:29N 30°13' W 093°15'0 0.0
2017-Nov-22 21:59N 30°13' W 093°15'0 0.0
2017-Nov-22 21:29N 30°13' W 093°15'0 0.0
2017-Nov-22 20:59N 30°13' W 093°15'0 0.0
2017-Nov-22 20:29N 30°13' W 093°15'0 0.0
2017-Nov-22 19:59N 30°13' W 093°15'0 0.0
2017-Nov-22 19:29N 30°13' W 093°15'  
2017-Nov-20 00:30N 30°06' W 093°17'0 0.0
2017-Nov-20 00:00N 30°06' W 093°17'0 0.0
2017-Nov-19 23:30N 30°06' W 093°17'0 0.0
2017-Nov-19 23:00N 30°06' W 093°17'0 0.0
2017-Nov-19 22:30N 30°06' W 093°17'0 0.0
2017-Nov-19 22:00N 30°06' W 093°17'0 0.0
2017-Nov-19 21:30N 30°06' W 093°17'0 0.0
2017-Nov-19 21:00N 30°06' W 093°17'0 0.0
2017-Nov-19 20:30N 30°06' W 093°17'0 0.0
2017-Nov-19 19:57N 30°06' W 093°17'0 0.0
2017-Nov-19 19:30N 30°06' W 093°17'0 0.0
2017-Nov-19 19:00N 30°06' W 093°17'0 0.0
2017-Nov-19 18:30N 30°06' W 093°17'0 0.0
2017-Nov-19 18:00N 30°06' W 093°17'0 0.0
2017-Nov-19 17:30N 30°06' W 093°17'1 1.5
2017-Nov-19 17:00N 30°06' W 093°18'0 0.0
2017-Nov-19 16:30N 30°06' W 093°18'0 0.0
2017-Nov-19 16:00N 30°06' W 093°18'2 3.8
2017-Nov-19 15:30N 30°08' W 093°20'3 5.3
2017-Nov-19 15:00N 30°10' W 093°19'0 0.6
2017-Nov-19 14:30N 30°11' W 093°19'0 0.0
2017-Nov-19 14:00N 30°11' W 093°19'1 2.8
2017-Nov-19 13:30N 30°11' W 093°18'2 0.4
2017-Nov-19 07:26N 30°13' W 093°15'0 0.0
2017-Nov-19 06:08N 30°13' W 093°15'0 0.0
2017-Nov-19 05:56N 30°13' W 093°15'0 0.0
2017-Nov-19 05:26N 30°13' W 093°15'3 6.5
2017-Nov-19 05:01N 30°11' W 093°18'1 1.9
2017-Nov-19 04:31N 30°11' W 093°19'0 0.2
2017-Nov-19 04:01N 30°11' W 093°19'0 0.5
2017-Nov-19 03:31N 30°11' W 093°19'2 4.6
2017-Nov-19 03:01N 30°08' W 093°20'0 0.5
2017-Nov-19 02:31N 30°08' W 093°20'1 2.3
2017-Nov-19 02:01N 30°09' W 093°20'3 6.9
2017-Nov-19 01:31N 30°12' W 093°17'2 3.0
2017-Nov-19 00:51N 30°13' W 093°15'0 0.0
2017-Nov-19 00:27N 30°13' W 093°15'0 0.0
2017-Nov-18 23:54N 30°13' W 093°15'0 0.0
2017-Nov-18 23:30N 30°13' W 093°15'0 0.0
2017-Nov-18 22:51N 30°13' W 093°15'0 0.0
2017-Nov-18 22:27N 30°13' W 093°15'0 0.0
2017-Nov-18 22:00N 30°13' W 093°15'0 0.0
2017-Nov-18 21:30N 30°13' W 093°15'0 0.0
2017-Nov-18 20:57N 30°13' W 093°15'0 0.0
2017-Nov-18 20:30N 30°13' W 093°15'0 0.0
2017-Nov-18 19:54N 30°13' W 093°15'0 0.0
2017-Nov-18 19:21N 30°13' W 093°15'0 0.0
2017-Nov-18 19:00N 30°13' W 093°15'4 7.8
2017-Nov-18 18:30N 30°11' W 093°19'0 0.2
2017-Nov-18 18:00N 30°11' W 093°19'1 2.9
2017-Nov-18 17:31N 30°12' W 093°18'2 3.9
2017-Nov-18 16:59N 30°13' W 093°16'1 2.3
2017-Nov-18 16:30N 30°14' W 093°16'0 0.8
2017-Nov-18 16:01N 30°14' W 093°15'1 1.0
2017-Nov-18 15:25N 30°13' W 093°15'0 0.0
2017-Nov-18 14:55N 30°13' W 093°15'3 7.1
2017-Nov-18 14:31N 30°11' W 093°18'1 1.8
2017-Nov-18 14:00N 30°11' W 093°19'1 2.7
2017-Nov-18 13:30N 30°10' W 093°20'0 0.0
2017-Nov-18 13:01N 30°10' W 093°20'1 2.6
2017-Nov-18 12:31N 30°11' W 093°19'0 0.3
2017-Nov-18 12:01N 30°11' W 093°19'1 1.9
2017-Nov-18 11:31N 30°11' W 093°18'0 0.0
2017-Nov-18 11:01N 30°11' W 093°18'0 0.0
2017-Nov-18 10:31N 30°11' W 093°18'0 0.0
2017-Nov-18 10:01N 30°11' W 093°18'0 0.0
2017-Nov-18 09:31N 30°11' W 093°18'0 0.0
2017-Nov-18 09:01N 30°11' W 093°18'0 0.0
2017-Nov-18 08:30N 30°11' W 093°18'0 0.0
2017-Nov-18 08:01N 30°11' W 093°18'0 0.0
2017-Nov-18 07:30N 30°11' W 093°18'0 0.0
2017-Nov-18 07:01N 30°11' W 093°18'0 0.0
2017-Nov-18 06:31N 30°11' W 093°18'0 0.0
2017-Nov-18 06:01N 30°11' W 093°18'0 0.0
2017-Nov-18 05:30N 30°11' W 093°18'0 0.0
2017-Nov-18 05:01N 30°11' W 093°18'0 0.6
2017-Nov-18 04:29N 30°12' W 093°18'1 1.4
2017-Nov-18 03:59N 30°11' W 093°18'1 1.9
2017-Nov-18 03:29N 30°10' W 093°19'1 2.8
2017-Nov-18 03:00N 30°09' W 093°20'3 5.4
2017-Nov-18 02:30N 30°07' W 093°20'1 2.1
2017-Nov-18 02:00N 30°06' W 093°20'0 0.0
2017-Nov-18 01:30N 30°06' W 093°20'2 4.8
2017-Nov-18 01:00N 30°08' W 093°20'4 7.6
2017-Nov-18 00:30N 30°11' W 093°18'0 0.0
2017-Nov-18 00:00N 30°11' W 093°18'0 0.0
2017-Nov-17 23:30N 30°11' W 093°18'0 0.0
2017-Nov-17 23:00N 30°11' W 093°18'0 0.0
2017-Nov-17 22:30N 30°11' W 093°18'0 0.0
2017-Nov-17 22:00N 30°11' W 093°18'0 0.0
2017-Nov-17 21:30N 30°11' W 093°18'0 0.0
2017-Nov-17 21:00N 30°11' W 093°18'0 0.0
2017-Nov-17 20:27N 30°11' W 093°18'0 0.0
2017-Nov-17 20:00N 30°11' W 093°18'1 2.5
2017-Nov-17 19:30N 30°11' W 093°19'0 0.0
2017-Nov-17 19:01N 30°11' W 093°19'0 0.1
2017-Nov-17 18:31N 30°11' W 093°19'2 4.1
2017-Nov-17 18:01N 30°09' W 093°20'1 2.4
2017-Nov-17 17:31N 30°10' W 093°19'0 0.1
2017-Nov-17 17:01N 30°10' W 093°19'0 0.5
2017-Nov-17 16:30N 30°10' W 093°19'1 2.2
2017-Nov-17 16:00N 30°11' W 093°18'1 1.0
2017-Nov-17 15:31N 30°11' W 093°19'0 0.9
2017-Nov-17 15:01N 30°11' W 093°19'1 1.2
2017-Nov-17 14:29N 30°11' W 093°18'0 0.0
2017-Nov-17 13:59N 30°11' W 093°18'0 0.0
2017-Nov-17 13:29N 30°11' W 093°18'0 0.0
2017-Nov-17 12:59N 30°11' W 093°18'0 0.0
2017-Nov-17 12:23N 30°11' W 093°18'0 0.0
2017-Nov-17 11:59N 30°11' W 093°18'0 0.0
2017-Nov-17 11:29N 30°11' W 093°18'0 0.0
2017-Nov-17 10:59N 30°11' W 093°18'0 0.0
2017-Nov-17 10:29N 30°11' W 093°18'0 0.0
2017-Nov-17 09:59N 30°11' W 093°18'0 0.0
2017-Nov-17 09:29N 30°11' W 093°18'0 0.0
2017-Nov-17 08:59N 30°11' W 093°18'0 0.0
2017-Nov-17 08:29N 30°11' W 093°18'0 0.0
2017-Nov-17 07:59N 30°11' W 093°18'0 0.0
2017-Nov-17 07:29N 30°11' W 093°18'0 0.0
2017-Nov-17 06:59N 30°11' W 093°18'0 0.0
2017-Nov-17 06:29N 30°11' W 093°18'0 0.0
2017-Nov-17 05:59N 30°11' W 093°18'0 0.0
2017-Nov-17 05:29N 30°11' W 093°18'0 0.0
2017-Nov-17 04:59N 30°11' W 093°18'0 0.0
2017-Nov-17 04:29N 30°11' W 093°18'1 1.1
2017-Nov-17 04:00N 30°11' W 093°18'2 3.6
2017-Nov-17 03:31N 30°10' W 093°20'0 0.0
2017-Nov-17 03:01N 30°10' W 093°20'0 0.8
2017-Nov-17 02:31N 30°09' W 093°20'2 4.4
2017-Nov-17 02:01N 30°07' W 093°20'3 5.5
2017-Nov-17 01:30N 30°04' W 093°20'0 0.4
2017-Nov-17 01:01N 30°04' W 093°20'3 6.0
2017-Nov-17 00:31N 30°07' W 093°18'0 0.3
2017-Nov-17 00:00N 30°06' W 093°17'0 0.0
2017-Nov-16 23:31N 30°06' W 093°17'0 0.0
2017-Nov-16 22:58N 30°06' W 093°17'0 0.0
2017-Nov-16 22:28N 30°06' W 093°17'0 0.0
2017-Nov-16 21:58N 30°06' W 093°17'0 0.0
2017-Nov-16 21:28N 30°06' W 093°17'2 4.4
2017-Nov-16 21:00N 30°06' W 093°20'4 7.8
2017-Nov-16 20:30N 30°10' W 093°19'1 1.7
2017-Nov-16 20:00N 30°11' W 093°19'0 0.9
2017-Nov-16 19:30N 30°11' W 093°19'0 0.5
2017-Nov-16 19:00N 30°11' W 093°19'0 0.0
2017-Nov-16 18:30N 30°11' W 093°19'0 0.0
2017-Nov-16 18:00N 30°11' W 093°19'1 2.1
2017-Nov-16 17:30N 30°10' W 093°19'2 3.7
2017-Nov-16 17:00N 30°11' W 093°18'3 5.3
2017-Nov-16 16:30N 30°13' W 093°16'1 1.8
2017-Nov-16 16:00N 30°14' W 093°16'1 1.1
2017-Nov-16 15:30N 30°14' W 093°15'1 3.0
2017-Nov-16 15:00N 30°12' W 093°16'4 8.6
2017-Nov-16 14:30N 30°09' W 093°20'4 7.1
2017-Nov-16 14:00N 30°06' W 093°19'1 2.5
2017-Nov-16 13:25N 30°06' W 093°17'0 0.0
2017-Nov-16 12:58N 30°06' W 093°17'0 0.0
2017-Nov-16 12:28N 30°06' W 093°17'0 0.0
2017-Nov-16 11:58N 30°06' W 093°17'0 0.0
2017-Nov-16 11:28N 30°06' W 093°17'0 0.0
2017-Nov-16 10:58N 30°06' W 093°17'0 0.0
2017-Nov-16 10:28N 30°06' W 093°17'0 0.0
2017-Nov-16 09:58N 30°06' W 093°17'0 0.0
2017-Nov-16 09:28N 30°06' W 093°17'0 0.0
2017-Nov-16 08:58N 30°06' W 093°17'0 0.0
2017-Nov-16 08:28N 30°06' W 093°17'0 0.0
2017-Nov-16 07:58N 30°06' W 093°17'0 0.0
2017-Nov-16 07:28N 30°06' W 093°17'0 0.0
2017-Nov-16 06:58N 30°06' W 093°17'0 0.0
2017-Nov-16 06:28N 30°06' W 093°17'0 0.0
2017-Nov-16 05:58N 30°06' W 093°17'0 0.0
2017-Nov-16 05:28N 30°06' W 093°17'0 0.0
2017-Nov-16 04:58N 30°06' W 093°17'0 0.0
2017-Nov-16 04:28N 30°06' W 093°17'0 0.0
2017-Nov-16 03:58N 30°06' W 093°17'0 0.0
2017-Nov-16 03:28N 30°06' W 093°17'0 0.0
2017-Nov-16 02:58N 30°06' W 093°17'0 0.0
2017-Nov-16 02:28N 30°06' W 093°17'0 0.0
2017-Nov-16 01:58N 30°06' W 093°17'0 0.0
2017-Nov-16 01:28N 30°06' W 093°17'2 3.7
2017-Nov-16 01:00N 30°06' W 093°19'4 7.5
2017-Nov-16 00:30N 30°10' W 093°19'4 8.2
2017-Nov-16 00:00N 30°12' W 093°16'8 2.2
2017-Nov-15 20:26N 30°05' W 093°20'0 0.6
2017-Nov-15 20:01N 30°05' W 093°20'0 0.6
2017-Nov-15 19:31N 30°06' W 093°19'2 3.6
2017-Nov-15 18:58N 30°06' W 093°17'0 0.0
2017-Nov-15 18:28N 30°06' W 093°17'0 0.0
2017-Nov-15 17:58N 30°06' W 093°17'0 0.0
2017-Nov-15 17:28N 30°06' W 093°17'0 0.0
2017-Nov-15 16:58N 30°06' W 093°17'0 0.0
2017-Nov-15 16:28N 30°06' W 093°17'0 0.0
2017-Nov-15 15:58N 30°06' W 093°17'0 0.0
2017-Nov-15 15:28N 30°06' W 093°17'0 0.0
2017-Nov-15 14:58N 30°06' W 093°17'0 0.0
2017-Nov-15 14:28N 30°06' W 093°17'0 0.0
2017-Nov-15 13:58N 30°06' W 093°17'0 0.0
2017-Nov-15 13:28N 30°06' W 093°17'0 0.0
2017-Nov-15 12:58N 30°06' W 093°17'0 0.0
2017-Nov-15 12:28N 30°06' W 093°17'0 0.0
2017-Nov-15 11:58N 30°06' W 093°17'0 0.0
2017-Nov-15 11:28N 30°06' W 093°17'0 0.0
2017-Nov-15 10:58N 30°06' W 093°17'0 0.0
2017-Nov-15 10:28N 30°06' W 093°17'0 0.0
2017-Nov-15 09:58N 30°06' W 093°17'0 0.0
2017-Nov-15 09:25N 30°06' W 093°17'2 5.1
2017-Nov-15 09:01N 30°06' W 093°20'4 8.1
2017-Nov-15 08:30N 30°10' W 093°19'2 4.9
2017-Nov-15 08:01N 30°12' W 093°17'2 4.8
2017-Nov-15 07:31N 30°13' W 093°15'1 1.1
2017-Nov-15 06:58N 30°14' W 093°15'1 1.3
2017-Nov-15 06:28N 30°13' W 093°15'1 1.1
2017-Nov-15 06:00N 30°13' W 093°15'0 0.0
2017-Nov-15 05:15N 30°13' W 093°15'0 0.0
2017-Nov-15 03:27N 30°13' W 093°15'0 0.0
2017-Nov-15 02:57N 30°13' W 093°15'0 0.0
2017-Nov-15 02:27N 30°13' W 093°15'0 0.0
2017-Nov-15 01:57N 30°13' W 093°15'0 0.0
2017-Nov-15 01:27N 30°13' W 093°15'0 0.0
2017-Nov-15 00:57N 30°13' W 093°15'0 0.0
2017-Nov-15 00:15N 30°13' W 093°15'0 0.0
2017-Nov-14 23:39N 30°13' W 093°15'0 0.0
2017-Nov-14 23:30N 30°13' W 093°15'0 0.0
2017-Nov-14 23:00N 30°13' W 093°15'0 0.0
2017-Nov-14 22:30N 30°13' W 093°15'0 0.0
2017-Nov-14 22:00N 30°13' W 093°15'0 0.0
2017-Nov-14 21:30N 30°13' W 093°15'0 0.0
2017-Nov-14 21:00N 30°13' W 093°15'0 0.0
2017-Nov-14 20:24N 30°13' W 093°15'0 0.0
2017-Nov-14 19:57N 30°13' W 093°15'0 0.0
2017-Nov-14 19:21N 30°13' W 093°15'0 0.0
2017-Nov-14 19:00N 30°13' W 093°15'0 0.0
2017-Nov-14 18:21N 30°13' W 093°15'0 0.0
2017-Nov-14 17:57N 30°13' W 093°15'0 0.0
2017-Nov-14 17:30N 30°13' W 093°15'0 0.0
2017-Nov-14 17:00N 30°13' W 093°15'0 0.0
2017-Nov-14 16:15N 30°13' W 093°15'0 0.0
2017-Nov-14 15:57N 30°13' W 093°15'3 7.0
2017-Nov-14 15:30N 30°11' W 093°18'0 0.4
2017-Nov-14 15:00N 30°11' W 093°18'0 0.5
2017-Nov-14 14:30N 30°11' W 093°19'3 5.8
2017-Nov-14 13:55N 30°13' W 093°15'0 0.0
2017-Nov-14 13:28N 30°13' W 093°15'0 0.0
2017-Nov-14 12:58N 30°13' W 093°15'1 2.3
2017-Nov-14 12:31N 30°13' W 093°14'  

Dump ship's entire track history